Time;durP1;ratioP1;P1;durP2;ratioP2;P2;SDS_P1;SDS_P2;PMS_P1;PMS_P2;Temp;Humidity;BMP_temperature;BMP_pressure;BME280_temperature;BME280_humidity;BME280_pressure;Samples;Min_cycle;Max_cycle;Signal;HPM_P1;HPM_P2
2023/09/29 00:01:26;;;;;;;16.63;5.23;;;;;;;16.42;100.00;80545.59;4854074;29;20030;-74
2023/09/29 00:03:51;;;;;;;21.10;5.20;;;;;;;16.56;100.00;80563.84;4851779;29;20065;-74
2023/09/29 00:06:16;;;;;;;23.07;4.90;;;;;;;16.53;100.00;85141.22;4864459;29;20033;-74
2023/09/29 00:08:45;;;;;;;17.10;6.00;;;;;;;16.52;100.00;83024.66;4856476;29;20101;-75
2023/09/29 00:26:42;;;;;;;18.27;6.07;;;;;;;16.66;100.00;89041.31;5171599;24;20442;-74
2023/09/29 00:29:07;;;;;;;27.67;5.80;;;;;;;16.70;100.00;91519.44;4856606;29;20033;-73
2023/09/29 00:31:34;;;;;;;19.38;5.57;;;;;;;16.74;100.00;94707.28;4857459;29;20044;-74
2023/09/29 00:33:59;;;;;;;25.53;4.90;;;;;;;16.71;100.00;95762.56;4851815;29;20038;-73
2023/09/29 01:38:28;;;;;;;17.83;4.95;;;;;;;17.03;100.00;127428.22;5381765;24;20122;-74
2023/09/29 01:40:55;;;;;;;17.93;5.47;;;;;;;17.04;100.00;134212.50;4832625;29;20440;-73
2023/09/29 01:43:23;;;;;;;25.98;5.05;;;;;;;17.05;100.00;132072.09;4837697;29;20055;-74
2023/09/29 01:45:48;;;;;;;19.33;5.43;;;;;;;17.02;100.00;133493.69;4820454;29;20064;-73
2023/09/29 01:48:14;;;;;;;19.23;5.97;;;;;;;17.05;100.00;137787.09;4805578;29;20065;-74
2023/09/29 01:50:40;;;;;;;17.00;4.83;;;;;;;17.01;100.00;137779.06;4818026;29;20530;-74
2023/09/29 01:53:06;;;;;;;21.60;5.47;;;;;;;17.03;100.00;141359.00;4822131;29;20029;-74
2023/09/29 01:55:32;;;;;;;18.60;5.53;;;;;;;17.02;100.00;141714.44;4824005;29;20113;-74
2023/09/29 01:57:57;;;;;;;25.33;5.27;;;;;;;17.05;100.00;144228.44;4822511;29;20038;-74
2023/09/29 02:00:28;;;;;;;14.00;4.97;;;;;;;17.06;100.00;150458.50;4838140;29;20042;-74
2023/09/29 02:02:55;;;;;;;24.38;6.07;;;;;;;16.99;100.00;150211.22;4821904;29;20037;-74
2023/09/29 02:05:21;;;;;;;24.35;6.03;;;;;;;16.99;100.00;148274.56;4839498;29;20082;-73
2023/09/29 02:07:49;;;;;;;18.27;5.78;;;;;;;17.04;100.00;152605.63;4840435;29;20411;-74
2023/09/29 02:10:21;;;;;;;13.63;5.40;;;;;;;17.04;100.00;154399.91;4841204;29;20042;-75
2023/09/29 02:25:43;;;;;;;15.65;4.32;;;;;;;17.25;100.00;155751.63;5337537;24;20062;-76
2023/09/29 02:28:09;;;;;;;15.20;4.63;;;;;;;17.18;100.00;155733.38;4836079;29;20034;-77
2023/09/29 02:30:35;;;;;;;20.13;4.80;;;;;;;17.17;100.00;154859.78;4853822;29;20486;-77
2023/09/29 02:33:01;;;;;;;21.20;4.13;;;;;;;17.18;100.00;152355.41;4856983;29;20405;-77
2023/09/29 02:35:28;;;;;;;23.52;5.45;;;;;;;17.17;100.00;146080.75;4882097;24;20058;-77
2023/09/29 02:37:54;;;;;;;19.10;5.10;;;;;;;17.21;100.00;139613.50;4838678;29;20056;-76
2023/09/29 02:40:20;;;;;;;16.93;6.07;;;;;;;17.25;100.00;139980.66;4830330;29;20108;-76
2023/09/29 02:42:46;;;;;;;19.30;4.97;;;;;;;17.34;100.00;140359.53;4833963;29;20030;-75
2023/09/29 02:45:13;;;;;;;19.27;4.40;;;;;;;17.38;100.00;143949.75;5556315;24;20025;-76
2023/09/29 02:47:42;;;;;;;17.90;5.07;;;;;;;17.33;100.00;142145.84;4854540;29;20070;-76
2023/09/29 02:50:11;;;;;;;16.10;4.10;;;;;;;17.37;100.00;137860.78;4854710;29;20025;-74
2023/09/29 03:41:43;;;;;;;16.60;4.80;;;;;;;17.58;100.00;101928.13;5402129;24;20050;-73
2023/09/29 03:44:12;;;;;;;13.97;4.70;;;;;;;17.55;100.00;101923.00;4824697;29;20045;-74
2023/09/29 03:46:38;;;;;;;13.23;5.35;;;;;;;17.59;100.00;100511.28;4813138;29;20041;-75
2023/09/29 03:49:04;;;;;;;15.60;4.72;;;;;;;17.55;100.00;98022.66;4831517;29;20447;-75
2023/09/29 03:51:31;;;;;;;10.70;4.30;;;;;;;17.49;100.00;91995.00;4831717;29;20092;-75
2023/09/29 03:53:57;;;;;;;11.45;4.70;;;;;;;17.51;100.00;90936.88;4829097;29;20449;-74
2023/09/29 03:56:23;;;;;;;14.63;4.20;;;;;;;17.58;100.00;88471.41;5686855;24;20046;-73
2023/09/29 03:58:53;;;;;;;11.55;4.05;;;;;;;17.57;100.00;89531.34;4837355;29;20070;-72
2023/09/29 04:01:19;;;;;;;15.00;3.45;;;;;;;17.56;100.00;87055.41;4839195;29;20041;-73
2023/09/29 04:03:45;;;;;;;11.70;4.10;;;;;;;17.59;100.00;85646.47;4821713;29;20061;-74
2023/09/29 04:06:10;;;;;;;13.20;3.70;;;;;;;17.65;100.00;85654.34;4841629;29;20040;-72
2023/09/29 04:08:36;;;;;;;18.20;4.80;;;;;;;17.65;100.00;86361.75;4834565;29;20034;-73
2023/09/29 04:11:01;;;;;;;11.93;4.23;;;;;;;17.55;100.00;84580.44;4834166;29;20085;-73
2023/09/29 04:31:33;;;;;;;9.27;3.70;;;;;;;17.58;100.00;74708.03;4919209;24;20061;-74
2023/09/29 04:33:58;;;;;;;11.67;3.10;;;;;;;17.60;100.00;75063.47;4837546;29;20335;-74
2023/09/29 04:36:24;;;;;;;16.77;4.83;;;;;;;17.64;100.00;74716.16;4860299;29;20405;-74
2023/09/29 04:38:49;;;;;;;9.13;3.90;;;;;;;17.66;100.00;75422.81;4856396;29;20559;-77
2023/09/29 04:41:16;;;;;;;17.73;4.30;;;;;;;17.68;100.00;76130.25;4836532;29;20407;-77
2023/09/29 04:43:44;;;;;;;13.07;4.85;;;;;;;17.73;100.00;77194.97;4843176;29;20030;-77
2023/09/29 04:46:09;;;;;;;8.30;3.88;;;;;;;17.71;100.00;76134.69;4852864;29;20068;-77
2023/09/29 04:48:34;;;;;;;8.60;3.67;;;;;;;17.71;100.00;75781.59;4974205;24;20077;-76
2023/09/29 04:58:45;;;;;;;8.75;3.53;;;;;;;17.69;100.00;70144.25;5587277;24;20066;-76
2023/09/29 05:01:17;;;;;;;9.90;3.70;;;;;;;17.68;100.00;67679.53;4792779;29;20022;-76
2023/09/29 05:03:42;;;;;;;11.40;3.55;;;;;;;17.74;100.00;66982.88;4793087;29;20095;-76
2023/09/29 05:06:08;;;;;;;10.80;3.50;;;;;;;17.74;100.00;67334.59;4803230;29;20038;-76
2023/09/29 05:08:33;;;;;;;9.10;3.47;;;;;;;17.77;100.00;66282.84;4812855;29;20080;-76
2023/09/29 05:10:58;;;;;;;14.07;3.97;;;;;;;17.73;100.00;64521.09;4800321;29;20031;-76
2023/09/29 05:13:25;;;;;;;5.60;2.90;;;;;;;17.69;100.00;62759.25;4815831;29;20510;-75
2023/09/29 05:15:50;;;;;;;7.40;3.00;;;;;;;17.81;100.00;62069.22;4791636;29;20034;-76
2023/09/29 05:18:17;;;;;;;10.33;3.43;;;;;;;17.83;100.00;63828.88;4814451;29;20372;-76
2023/09/29 05:20:43;;;;;;;6.80;3.47;;;;;;;17.85;100.00;63128.13;4794120;29;20033;-77
2023/09/29 05:41:15;;;;;;;10.60;2.97;;;;;;;17.99;100.00;58926.97;5197114;24;20061;-77
2023/09/29 05:43:41;;;;;;;7.87;3.30;;;;;;;18.05;100.00;55773.56;4836529;29;20041;-76
2023/09/29 05:46:06;;;;;;;7.30;3.83;;;;;;;18.08;100.00;56126.84;4854849;29;20057;-77
2023/09/29 05:51:07;;;;;;;10.60;3.78;;;;;;;18.19;100.00;56137.25;5479997;24;20522;-76
2023/09/29 05:53:32;;;;;;;10.07;3.33;;;;;;;18.21;100.00;55788.13;4839890;29;20074;-76
2023/09/29 05:56:06;;;;;;;7.53;2.97;;;;;;;18.25;100.00;56845.56;4836356;29;20355;-75
2023/09/29 05:58:32;;;;;;;11.25;3.80;;;;;;;18.32;100.00;57554.16;4837406;29;20033;-76
2023/09/29 06:01:07;;;;;;;9.32;3.83;;;;;;;18.29;100.00;57551.22;4837063;29;20440;-77
2023/09/29 06:03:32;;;;;;;10.80;3.40;;;;;;;18.28;100.00;54741.75;4835059;29;20034;-76
2023/09/29 06:05:58;;;;;;;9.23;3.73;;;;;;;18.29;100.00;54040.84;4819905;29;20034;-77
2023/09/29 06:08:24;;;;;;;9.60;3.08;;;;;;;18.29;100.00;53690.47;4838706;29;20041;-76
2023/09/29 06:10:49;;;;;;;7.50;3.93;;;;;;;18.30;100.00;51937.44;4837620;29;20044;-76
2023/09/29 06:13:15;;;;;;;9.97;3.47;;;;;;;18.31;100.00;51236.53;4841481;29;20483;-76
2023/09/29 06:15:40;;;;;;;10.13;3.53;;;;;;;18.40;100.00;51244.38;4820759;29;20486;-75
2023/09/29 06:18:05;;;;;;;5.20;3.47;;;;;;;18.42;100.00;50895.41;4839583;29;20041;-76
2023/09/29 06:20:31;;;;;;;8.40;3.03;;;;;;;18.45;100.00;51599.41;4820124;29;20038;-76
2023/09/29 06:22:56;;;;;;;5.07;3.00;;;;;;;18.48;100.00;51602.03;4804449;29;20044;-77
2023/09/29 06:25:22;;;;;;;12.20;3.47;;;;;;;18.50;100.00;51253.44;4832282;29;20045;-76
2023/09/29 06:27:47;;;;;;;10.37;3.23;;;;;;;18.48;100.00;51251.28;4834256;29;20033;-76
2023/09/29 06:30:13;;;;;;;13.37;4.30;;;;;;;18.52;100.00;50202.59;4824373;29;20543;-76
2023/09/29 06:32:39;;;;;;;5.07;3.20;;;;;;;18.48;100.00;49498.38;4838452;29;20026;-76
2023/09/29 06:35:06;;;;;;;13.75;3.70;;;;;;;18.57;100.00;48454.13;4835179;29;20041;-76
2023/09/29 06:37:31;;;;;;;7.20;4.17;;;;;;;18.58;100.00;48454.53;4835970;29;20029;-75
2023/09/29 06:39:57;;;;;;;8.23;3.87;;;;;;;18.59;100.00;48105.25;4823098;29;20121;-76
2023/09/29 06:42:22;;;;;;;13.23;4.87;;;;;;;18.58;100.00;46702.19;4820944;29;20053;-76
2023/09/29 06:44:47;;;;;;;11.40;3.60;;;;;;;18.59;100.00;41450.44;4823070;29;20065;-76
2023/09/29 06:47:14;;;;;;;11.63;3.93;;;;;;;18.57;100.00;38650.66;4839130;29;20116;-77
2023/09/29 06:49:39;;;;;;;;;;;;;;;18.59;100.00;36554.75;4825892;29;20081;-76
2023/09/29 06:52:05;;;;;;;11.90;4.07;;;;;;;18.64;100.00;37257.00;4840653;29;19920;-76
2023/09/29 06:54:30;;;;;;;10.47;3.53;;;;;;;18.74;100.00;38661.88;4836772;29;20141;-77
2023/09/29 06:56:56;;;;;;;10.70;4.03;;;;;;;18.81;100.00;41465.97;4838997;29;20129;-77
2023/09/29 06:59:21;;;;;;;10.17;3.40;;;;;;;18.83;100.00;42167.97;4819971;29;20041;-74
2023/09/29 07:01:47;;;;;;;11.83;3.80;;;;;;;18.83;100.00;42517.75;4838201;29;20045;-74
2023/09/29 07:04:12;;;;;;;11.07;3.43;;;;;;;18.83;100.00;41467.41;4818465;29;20041;-72
2023/09/29 07:06:38;;;;;;;11.40;3.70;;;;;;;18.89;100.00;40421.47;4819811;29;20034;-73
2023/09/29 08:05:07;;;;;;;12.65;3.67;;;;;;;20.48;100.00;88546.03;5104825;24;20061;-74
2023/09/29 08:16:00;;;;;;;11.70;3.58;;;;;;;20.59;100.00;103510.16;5884818;24;20054;-72
2023/09/29 08:18:26;;;;;;;7.03;3.38;;;;;;;20.73;100.00;108530.31;4814972;29;20046;-72
2023/09/29 08:20:53;;;;;;;9.57;3.13;;;;;;;20.76;100.00;107465.47;4829532;29;20110;-72
2023/09/29 08:23:18;;;;;;;14.73;3.55;;;;;;;20.78;100.00;108182.28;4831945;29;20400;-73
2023/09/29 08:25:45;;;;;;;7.53;2.70;;;;;;;20.94;100.00;107853.97;4816419;29;20121;-73
2023/09/29 08:28:13;;;;;;;11.23;3.05;;;;;;;20.95;100.00;115005.00;4826033;29;20072;-72
2023/09/29 08:30:39;;;;;;;8.05;3.25;;;;;;;20.89;100.00;116066.88;4832679;29;20038;-72
2023/09/29 08:33:05;;;;;;;5.70;3.35;;;;;;;21.11;100.00;112888.97;4832608;29;20045;-74
2023/09/29 08:35:31;;;;;;;9.13;3.28;;;;;;;21.14;100.00;120771.63;4835695;29;20129;-72
2023/09/29 08:37:57;;;;;;;8.40;3.10;;;;;;;21.16;100.00;124361.19;4833698;29;20109;-72
2023/09/29 08:40:22;;;;;;;8.00;3.22;;;;;;;21.04;100.00;122903.09;4835408;29;20376;-72
2023/09/29 08:42:51;;;;;;;7.77;2.80;;;;;;;20.86;100.00;98209.47;4832135;29;20068;-72
2023/09/29 08:45:19;;;;;;;9.43;3.40;;;;;;;20.72;100.00;71916.06;4834839;29;20386;-72
2023/09/29 08:47:56;;;;;;;12.68;2.95;;;;;;;20.74;100.00;66967.50;4804246;29;20035;-73
2023/09/29 08:50:24;;;;;;;6.00;3.25;;;;;;;20.73;100.00;64140.63;4833467;29;20487;-72
2023/09/29 09:00:33;;;;;;;6.28;2.70;;;;;;;20.16;100.00;39106.66;4848089;29;20042;-73
2023/09/29 09:03:01;;;;;;;9.00;3.23;;;;;;;20.15;100.00;32799.78;4853595;29;20037;-74
2023/09/29 09:05:26;;;;;;;5.72;3.08;;;;;;;20.13;100.00;29299.88;4850664;29;20026;-74
2023/09/29 09:07:53;;;;;;;13.63;3.00;;;;;;;20.19;100.00;28253.78;4853992;29;20033;-75
2023/09/29 09:10:29;;;;;;;10.85;3.60;;;;;;;20.26;100.00;28257.47;4841494;29;20041;-74
2023/09/29 09:12:55;;;;;;;11.40;3.42;;;;;;;20.23;100.00;30354.44;4850362;29;20026;-74
2023/09/29 09:15:24;;;;;;;7.93;3.33;;;;;;;20.17;100.00;27903.19;4859172;29;20030;-74
2023/09/29 09:17:50;;;;;;;8.68;3.53;;;;;;;19.95;100.00;24049.97;4850909;29;20045;-75
2023/09/29 09:20:16;;;;;;;5.50;3.50;;;;;;;19.86;100.00;20207.97;4852425;29;20443;-73
2023/09/29 09:22:42;;;;;;;7.95;3.88;;;;;;;19.86;100.00;17767.59;4853028;29;20033;-76
2023/09/29 09:25:09;;;;;;;11.25;3.70;;;;;;;19.83;100.00;15327.75;4850207;29;20033;-75
2023/09/29 09:27:39;;;;;;;8.98;3.60;;;;;;;19.78;100.00;13585.22;4855863;29;20030;-75
2023/09/29 09:30:05;;;;;;;7.95;3.25;;;;;;;19.76;100.00;11844.72;4852623;29;20044;-74
2023/09/29 09:32:31;;;;;;;16.67;3.55;;;;;;;19.74;100.00;11148.34;4850242;29;20029;-74
2023/09/29 09:34:58;;;;;;;10.17;3.83;;;;;;;19.73;100.00;10452.44;4853290;29;20614;-74
2023/09/29 09:37:29;;;;;;;7.18;4.00;;;;;;;19.75;100.00;8366.50;4833199;29;20113;-74
2023/09/29 09:39:55;;;;;;;7.78;3.78;;;;;;;19.78;100.00;6976.72;4852676;29;20040;-74
2023/09/29 09:42:26;;;;;;;14.50;4.55;;;;;;;19.81;100.00;6629.56;4852816;29;20033;-74
2023/09/29 09:44:58;;;;;;;9.85;3.92;;;;;;;19.76;100.00;5934.03;4853865;29;20521;-74
2023/09/29 09:47:27;;;;;;;10.25;4.43;;;;;;;19.80;100.00;7324.50;4854454;29;20033;-75
2023/09/29 09:49:57;;;;;;;13.48;4.40;;;;;;;19.83;100.00;8715.53;4854922;29;20114;-74
2023/09/29 09:52:29;;;;;;;8.73;3.70;;;;;;;19.84;100.00;10106.81;4851968;29;20029;-74
2023/09/29 09:55:10;;;;;;;6.68;3.08;;;;;;;19.93;100.00;10804.50;4854635;29;20125;-74
2023/09/29 09:57:41;;;;;;;14.32;3.92;;;;;;;19.87;100.00;13935.69;4851962;29;20041;-74
2023/09/29 10:00:12;;;;;;;6.63;3.67;;;;;;;19.89;100.00;13588.13;4837070;29;20081;-75
2023/09/29 10:05:30;;;;;;;8.05;3.67;;;;;;;20.01;100.00;11850.19;5056648;24;20054;-73
2023/09/29 10:08:02;;;;;;;10.48;3.55;;;;;;;20.10;100.00;11156.00;4829391;29;20384;-72
2023/09/29 10:33:55;;;;;;;8.75;4.13;;;;;;;19.98;100.00;-2742.00;4996726;24;20076;-77
2023/09/29 10:36:29;;;;;;;8.15;4.10;;;;;;;19.97;100.00;-3782.13;4828563;29;20486;-80
2023/09/29 10:38:57;;;;;;;8.00;4.00;;;;;;;20.05;100.00;-5515.47;4831816;29;20455;-79
2023/09/29 10:41:24;;;;;;;7.45;3.70;;;;;;;20.08;100.00;-6208.75;4831158;29;20033;-79
2023/09/29 10:43:50;;;;;;;;;;;;;;;19.98;100.00;-6208.09;4830715;29;20050;-80
2023/09/29 11:12:17;;;;;;;5.18;1.80;;;;;;;19.57;100.00;31.75;5006159;24;20099;-79
2023/09/29 11:14:43;;;;;;;5.57;1.80;;;;;;;19.45;100.00;3500.03;4831706;29;20053;-79
2023/09/29 11:17:08;;;;;;;7.05;2.22;;;;;;;19.43;100.00;7319.00;4829871;29;20026;-79
2023/09/29 11:19:36;;;;;;;3.57;1.60;;;;;;;19.52;100.00;8362.63;4832273;29;20049;-78
2023/09/29 11:27:11;;;;;;;8.00;2.33;;;;;;;19.49;100.00;12186.34;5402854;24;20066;-77
2023/09/29 11:29:37;;;;;;;4.83;2.13;;;;;;;19.49;100.00;11838.53;4830147;29;20030;-78
2023/09/29 11:32:04;;;;;;;7.82;2.40;;;;;;;19.56;100.00;10449.00;4828838;29;20041;-80
2023/09/29 11:34:29;;;;;;;5.90;2.42;;;;;;;19.40;100.00;14271.66;4828305;29;20038;-78
2023/09/29 11:36:55;;;;;;;11.10;3.35;;;;;;;19.41;100.00;13923.97;4826547;29;20060;-77
2023/09/29 11:39:22;;;;;;;11.53;2.43;;;;;;;19.34;100.00;12878.59;4824799;29;20046;-79
2023/09/29 11:41:48;;;;;;;5.50;1.73;;;;;;;19.47;100.00;13229.50;4811291;29;20410;-77
2023/09/29 11:44:15;;;;;;;4.93;2.17;;;;;;;19.25;100.00;15311.50;4809306;29;20049;-77
2023/09/29 11:46:40;;;;;;;4.30;2.22;;;;;;;19.07;100.00;17046.06;4829813;29;20125;-79
2023/09/29 11:49:07;;;;;;;9.23;2.33;;;;;;;19.04;100.00;19481.97;4828612;29;20469;-79
2023/09/29 11:51:32;;;;;;;;;;;;;;;19.22;100.00;24716.72;4826089;29;20026;-79
2023/09/29 11:53:58;;;;;;;11.88;2.45;;;;;;;19.39;100.00;29611.66;4825867;29;20340;-78
2023/09/29 11:56:24;;;;;;;7.93;2.50;;;;;;;19.52;100.00;31016.19;4810968;29;21324;-78
2023/09/29 11:58:49;;;;;;;9.60;2.50;;;;;;;19.35;100.00;36951.97;4825520;29;20038;-78
2023/09/29 12:01:17;;;;;;;10.52;2.95;;;;;;;19.28;100.00;36947.53;4821565;29;20034;-77
2023/09/29 12:03:42;;;;;;;11.10;2.70;;;;;;;19.28;100.00;37647.78;4826720;29;20121;-77
2023/09/29 12:06:08;;;;;;;11.10;2.57;;;;;;;19.20;100.00;40443.16;4814816;29;20120;-80
2023/09/29 12:08:35;;;;;;;8.63;2.67;;;;;;;19.06;100.00;44987.22;4830731;29;20076;-78
2023/09/29 12:11:05;;;;;;;11.25;2.92;;;;;;;19.13;100.00;49552.41;4827377;29;20034;-77
2023/09/29 12:13:31;;;;;;;10.23;2.13;;;;;;;19.17;100.00;56230.56;4819074;29;20026;-77
2023/09/29 12:41:12;;;;;;;12.73;2.88;;;;;;;19.61;100.00;156365.25;5868996;24;20029;31
2023/09/29 13:42:48;;;;;;;14.23;3.10;;;;;;;19.05;100.00;156220.53;4939701;24;20054;-78
2023/09/29 13:45:14;;;;;;;9.70;2.60;;;;;;;19.28;100.00;156279.22;4838231;29;20046;-77
2023/09/29 13:47:39;;;;;;;10.90;3.20;;;;;;;19.50;100.00;156336.59;4834060;29;20399;-77
2023/09/29 13:50:08;;;;;;;15.47;3.80;;;;;;;20.13;100.00;156500.94;4833271;29;20026;-77
2023/09/29 13:57:50;;;;;;;13.48;3.00;;;;;;;20.03;100.00;156476.13;5196991;24;20476;-78
2023/09/29 14:00:18;;;;;;;6.10;2.17;;;;;;;19.73;100.00;156396.53;4849409;29;20081;-76
2023/09/29 14:02:43;;;;;;;10.52;2.35;;;;;;;19.68;100.00;156384.81;4852021;29;20029;-76
2023/09/29 14:05:10;;;;;;;12.53;2.80;;;;;;;19.58;100.00;156358.75;4847666;29;20090;-77
2023/09/29 14:07:35;;;;;;;;;;;;;;;19.51;100.00;156339.19;4845609;29;20034;-78
2023/09/29 14:10:00;;;;;;;9.93;3.25;;;;;;;19.62;100.00;156367.84;4848842;29;20457;-77
2023/09/29 14:12:26;;;;;;;11.57;2.97;;;;;;;19.65;100.00;156375.72;4851715;29;20045;-77
2023/09/29 14:14:51;;;;;;;8.63;3.17;;;;;;;19.59;100.00;156361.34;4850682;29;20025;-77
2023/09/29 14:17:17;;;;;;;9.30;2.90;;;;;;;19.52;100.00;156343.09;5185590;24;20060;-77
2023/09/29 14:19:42;;;;;;;16.10;3.43;;;;;;;19.45;100.00;156323.53;4836522;29;20432;-76
2023/09/29 14:22:07;;;;;;;10.83;2.57;;;;;;;19.38;100.00;156306.59;4837877;29;20546;-77
2023/09/29 14:24:33;;;;;;;9.27;2.77;;;;;;;19.46;100.00;156326.16;4834503;29;20130;-76
2023/09/29 14:26:58;;;;;;;12.17;3.57;;;;;;;19.34;100.00;156296.19;4817960;29;20042;-76
2023/09/29 14:29:24;;;;;;;9.53;2.63;;;;;;;19.15;100.00;156245.31;4816695;29;20034;-77
2023/09/29 14:31:51;;;;;;;15.60;3.23;;;;;;;19.05;100.00;156219.25;4823770;29;20121;-77
2023/09/29 14:34:16;;;;;;;9.52;3.20;;;;;;;18.98;100.00;156202.28;4833062;29;20022;-77
2023/09/29 14:36:42;;;;;;;10.20;3.43;;;;;;;18.92;100.00;156186.66;4835053;29;20041;-77
2023/09/29 14:39:09;;;;;;;8.43;3.03;;;;;;;18.90;100.00;156181.41;4837961;29;20040;-77
2023/09/29 14:41:35;;;;;;;24.48;4.90;;;;;;;18.86;100.00;156171.03;4837187;29;20026;-77
2023/09/29 14:44:00;;;;;;;26.63;5.88;;;;;;;18.95;100.00;156193.19;4830821;29;20090;-78
2023/09/29 14:46:25;;;;;;;19.73;4.33;;;;;;;19.37;100.00;156302.72;4835768;29;20507;-77
2023/09/29 14:48:51;;;;;;;12.73;4.47;;;;;;;19.49;100.00;156333.97;4813158;29;20033;-77
2023/09/29 14:51:16;;;;;;;16.53;5.33;;;;;;;19.52;100.00;156341.84;4816924;29;20079;-76
2023/09/29 14:53:42;;;;;;;13.93;4.47;;;;;;;19.45;100.00;156324.88;4835521;29;20034;-77
2023/09/29 14:56:14;;;;;;;20.17;4.63;;;;;;;19.65;100.00;156375.72;4834874;29;20125;-76
2023/09/29 15:25:36;;;;;;;20.05;6.18;;;;;;;18.84;100.00;156164.50;5151960;24;20068;-74
2023/09/29 15:28:04;;;;;;;23.00;7.82;;;;;;;18.89;100.00;156177.53;4835248;29;20030;-75
2023/09/29 15:30:29;;;;;;;18.40;5.72;;;;;;;18.94;100.00;156190.59;4836942;29;20032;-74
2023/09/29 16:32:23;;;;;;;19.85;5.55;;;;;;;17.54;100.00;155825.81;5329223;24;20091;-75
2023/09/29 16:34:49;;;;;;;18.83;4.63;;;;;;;17.47;100.00;155808.94;4839862;29;20033;-76
2023/09/29 16:37:15;;;;;;;13.17;4.73;;;;;;;17.37;100.00;155781.53;4837049;29;20042;-75
2023/09/29 16:39:40;;;;;;;18.85;4.75;;;;;;;17.30;100.00;155764.59;4842345;29;20495;-75
2023/09/29 16:42:06;;;;;;;22.03;5.57;;;;;;;17.24;100.00;155748.97;4837452;29;20037;-76
2023/09/29 16:44:31;;;;;;;22.03;5.23;;;;;;;17.20;100.00;155738.59;4837166;29;20032;-76
2023/09/29 16:46:58;;;;;;;17.97;5.13;;;;;;;17.17;100.00;155729.47;4836560;29;20038;-76
2023/09/29 16:49:23;;;;;;;;;;;;;;;17.11;100.00;155713.84;4836750;29;20408;-75
2023/09/29 16:51:49;;;;;;;22.30;6.30;;;;;;;17.08;100.00;155706.06;4837916;29;20011;-74
2023/09/29 16:54:19;;;;;;;25.70;6.30;;;;;;;16.97;100.00;155677.44;4839669;29;20156;-75
2023/09/29 17:04:30;;;;;;;20.77;5.35;;;;;;;16.74;100.00;155618.88;5650274;24;20062;-75
2023/09/29 17:06:57;;;;;;;15.67;4.17;;;;;;;16.70;100.00;155607.19;4839276;29;20089;-76
2023/09/29 17:09:22;;;;;;;27.60;5.47;;;;;;;16.68;100.00;155601.97;4822039;29;20050;-76
2023/09/29 17:11:48;;;;;;;18.77;4.77;;;;;;;16.60;100.00;155582.44;4837977;29;20534;-75
2023/09/29 17:14:14;;;;;;;19.23;4.67;;;;;;;16.49;100.00;155552.56;4835202;29;20034;-77
2023/09/29 17:24:25;;;;;;;20.88;4.43;;;;;;;16.34;100.00;155513.47;5460534;24;20066;-75
2023/09/29 17:26:51;;;;;;;22.85;5.10;;;;;;;16.23;100.00;155486.16;4818386;29;20034;-75
2023/09/29 17:29:16;;;;;;;20.10;3.92;;;;;;;16.22;100.00;155482.28;4816297;29;20049;-75
2023/09/29 17:31:43;;;;;;;14.67;4.53;;;;;;;16.15;100.00;155464.06;4832225;29;20038;-73
2023/09/29 17:34:09;;;;;;;23.77;5.22;;;;;;;16.09;100.00;155448.44;4835589;29;20030;-72
2023/09/29 17:36:34;;;;;;;30.00;6.30;;;;;;;16.01;100.00;155427.66;4833569;29;20487;-73
2023/09/29 17:39:00;;;;;;;28.20;5.30;;;;;;;16.00;100.00;155425.09;4833879;29;20034;-74
2023/09/29 17:41:25;;;;;;;18.10;4.53;;;;;;;15.98;100.00;155421.16;4833724;29;20416;-73
2023/09/29 17:43:51;;;;;;;20.43;4.67;;;;;;;15.92;100.00;155405.56;4831989;29;20566;-73
2023/09/29 17:46:17;;;;;;;16.90;4.10;;;;;;;15.83;100.00;155380.84;4817670;29;20037;-73
2023/09/29 17:48:42;;;;;;;25.93;5.67;;;;;;;15.72;100.00;155353.56;4819955;29;20490;-74
2023/09/29 17:51:11;;;;;;;13.13;3.87;;;;;;;15.66;100.00;155337.97;4832394;29;20038;-73
2023/09/29 17:53:36;;;;;;;15.30;4.20;;;;;;;15.59;100.00;155318.47;4818656;29;20026;-74
2023/09/29 18:14:08;;;;;;;19.98;5.07;;;;;;;14.72;100.00;155092.38;5279212;24;20081;-72
2023/09/29 18:16:33;;;;;;;16.23;5.10;;;;;;;14.68;100.00;140804.41;4831420;29;20814;-73
2023/09/29 18:21:35;;;;;;;13.18;4.38;;;;;;;14.50;100.00;132219.94;5629692;24;20076;-74
2023/09/29 18:24:02;;;;;;;19.17;5.25;;;;;;;14.50;100.00;128665.97;4853224;29;20044;-74
2023/09/29 18:26:28;;;;;;;15.27;5.47;;;;;;;14.37;100.00;118352.13;4849592;29;20733;-74
2023/09/29 18:28:54;;;;;;;17.90;5.80;;;;;;;14.29;100.00;115148.44;4851915;29;20096;-74
2023/09/29 18:31:19;;;;;;;20.83;5.63;;;;;;;14.21;100.00;110534.88;4853908;29;20044;-74
2023/09/29 18:33:45;;;;;;;24.53;5.30;;;;;;;14.18;100.00;106289.63;4840522;29;20479;-75
2023/09/29 18:43:56;;;;;;;20.67;6.10;;;;;;;13.97;100.00;83723.25;5824155;24;19919;-73
2023/09/29 18:46:21;;;;;;;19.77;5.80;;;;;;;13.94;100.00;78457.25;4827603;29;20053;-73
2023/09/29 18:48:48;;;;;;;27.60;6.93;;;;;;;13.90;100.00;78452.63;4810044;29;20124;-74
2023/09/29 18:51:14;;;;;;;18.88;5.68;;;;;;;13.84;100.00;71440.81;4823504;29;20029;-75
2023/09/29 18:53:40;;;;;;;29.48;15.05;;;;;;;13.75;100.00;71429.38;4821926;29;20056;-74
2023/09/29 18:56:05;;;;;;;23.50;9.63;;;;;;;13.72;100.00;65134.03;4828197;29;20042;-73
2023/09/29 18:58:30;;;;;;;23.90;7.33;;;;;;;13.68;100.00;59545.69;4814146;29;20038;-75
2023/09/29 19:11:18;;;;;;;25.08;5.43;;;;;;;13.48;100.00;45257.13;5611689;24;20534;-74
2023/09/29 19:34:25;;;;;;;18.88;5.25;;;;;;;13.17;100.00;41763.09;5243176;24;20301;-73
2023/09/29 19:47:09;;;;;;;15.32;4.60;;;;;;;12.93;100.00;33432.38;4864508;29;20388;-74
2023/09/29 19:49:37;;;;;;;14.80;4.90;;;;;;;12.91;100.00;33777.25;4866981;29;20033;-73
2023/09/29 19:52:02;;;;;;;16.15;5.82;;;;;;;12.82;100.00;33426.03;4853334;29;20029;-73
2023/09/29 19:54:28;;;;;;;16.03;5.50;;;;;;;12.84;100.00;35157.19;4864857;29;20037;-73
2023/09/29 20:17:26;;;;;;;21.60;7.82;;;;;;;12.61;100.00;27193.31;4827356;29;19925;-73
2023/09/29 20:19:52;;;;;;;18.20;6.27;;;;;;;12.60;100.00;26847.56;4837617;29;20406;-72
2023/09/29 20:22:17;;;;;;;21.13;6.50;;;;;;;12.54;100.00;28916.94;4840848;29;20105;-72
2023/09/29 20:24:44;;;;;;;17.47;6.53;;;;;;;12.54;100.00;28226.16;4838839;29;20499;-73
2023/09/29 20:27:10;;;;;;;13.90;5.88;;;;;;;12.50;100.00;26843.13;4823638;29;20503;-74
2023/09/29 20:29:35;;;;;;;17.60;6.00;;;;;;;12.53;100.00;24083.47;4824967;29;20030;-74
2023/09/29 20:32:02;;;;;;;17.70;6.60;;;;;;;12.51;100.00;24772.63;4831941;29;20034;-72
2023/09/29 20:34:27;;;;;;;19.02;6.20;;;;;;;12.44;100.00;27530.47;4819522;29;20547;-73
2023/09/29 20:36:53;;;;;;;20.50;6.50;;;;;;;12.41;100.00;26148.41;4843004;29;20070;-73
2023/09/29 20:39:21;;;;;;;21.73;6.40;;;;;;;12.34;100.00;22351.66;4824327;29;20038;-74
2023/09/29 20:41:47;;;;;;;17.42;6.68;;;;;;;12.35;100.00;22007.16;4815589;29;20457;-74
2023/09/29 20:44:13;;;;;;;18.93;6.20;;;;;;;12.36;100.00;21318.19;4826332;29;20034;-73
2023/09/29 20:46:39;;;;;;;21.08;5.75;;;;;;;12.33;100.00;22006.38;4841105;29;20037;-73
2023/09/29 20:49:05;;;;;;;15.03;6.07;;;;;;;12.27;100.00;22348.91;4826218;29;20499;-73
2023/09/29 20:51:30;;;;;;;15.80;6.57;;;;;;;12.26;100.00;21314.59;4824869;29;20034;-75
2023/09/29 20:53:56;;;;;;;18.43;6.13;;;;;;;12.24;100.00;21658.25;4823532;29;20505;-73
2023/09/29 20:56:21;;;;;;;17.43;6.43;;;;;;;12.17;100.00;21311.03;4841269;29;20038;-73
2023/09/29 20:58:47;;;;;;;17.57;6.33;;;;;;;12.19;100.00;20967.25;4841789;29;20045;-75
2023/09/29 21:01:13;;;;;;;16.60;5.87;;;;;;;12.17;100.00;19588.91;4839504;29;20032;-74
2023/09/29 21:03:39;;;;;;;16.70;5.93;;;;;;;12.22;100.00;18901.72;4842825;29;20026;-74
2023/09/29 21:06:05;;;;;;;20.37;6.97;;;;;;;12.07;100.00;21651.91;4843068;29;20022;-74
2023/09/29 21:08:31;;;;;;;19.98;6.70;;;;;;;12.08;100.00;20274.31;4841854;29;20041;-74
2023/09/29 21:10:56;;;;;;;18.90;6.93;;;;;;;12.11;100.00;19242.31;4808795;29;20042;-73